sensor_id;sensor_type;location;lat;lon;timestamp;temperature;humidity
18882;DHT22;9573;50.948;11.600;2022-08-04T00:01:31;20.60;99.90
18882;DHT22;9573;50.948;11.600;2022-08-04T00:04:02;20.50;99.90
18882;DHT22;9573;50.948;11.600;2022-08-04T00:06:43;20.50;99.90
18882;DHT22;9573;50.948;11.600;2022-08-04T00:09:23;20.50;99.90
18882;DHT22;9573;50.948;11.600;2022-08-04T00:11:57;20.40;99.90
18882;DHT22;9573;50.948;11.600;2022-08-04T00:14:29;20.40;99.90
18882;DHT22;9573;50.948;11.600;2022-08-04T00:17:03;20.30;99.90
18882;DHT22;9573;50.948;11.600;2022-08-04T00:19:35;20.30;99.90
18882;DHT22;9573;50.948;11.600;2022-08-04T00:22:09;20.40;99.90
18882;DHT22;9573;50.948;11.600;2022-08-04T00:24:40;20.30;99.90
18882;DHT22;9573;50.948;11.600;2022-08-04T00:27:09;20.20;99.90
18882;DHT22;9573;50.948;11.600;2022-08-04T00:29:37;20.20;99.90
18882;DHT22;9573;50.948;11.600;2022-08-04T00:32:06;20.10;99.90
18882;DHT22;9573;50.948;11.600;2022-08-04T00:34:34;20.10;99.90
18882;DHT22;9573;50.948;11.600;2022-08-04T00:37:04;20.10;99.90
18882;DHT22;9573;50.948;11.600;2022-08-04T00:39:32;20.10;99.90
18882;DHT22;9573;50.948;11.600;2022-08-04T00:42:22;20.10;99.90
18882;DHT22;9573;50.948;11.600;2022-08-04T00:45:07;20.00;99.90
18882;DHT22;9573;50.948;11.600;2022-08-04T00:48:21;20.00;99.90
18882;DHT22;9573;50.948;11.600;2022-08-04T00:51:02;19.90;99.90
18882;DHT22;9573;50.948;11.600;2022-08-04T00:53:39;19.90;99.90
18882;DHT22;9573;50.948;11.600;2022-08-04T00:56:25;19.80;99.90
18882;DHT22;9573;50.948;11.600;2022-08-04T01:02:24;19.80;99.90
18882;DHT22;9573;50.948;11.600;2022-08-04T01:05:02;19.70;99.90
18882;DHT22;9573;50.948;11.600;2022-08-04T01:07:48;19.70;99.90
18882;DHT22;9573;50.948;11.600;2022-08-04T01:10:35;19.70;99.90
18882;DHT22;9573;50.948;11.600;2022-08-04T01:13:41;19.60;99.90
18882;DHT22;9573;50.948;11.600;2022-08-04T01:16:23;19.60;99.90
18882;DHT22;9573;50.948;11.600;2022-08-04T01:18:56;19.50;99.90
18882;DHT22;9573;50.948;11.600;2022-08-04T01:24:56;19.50;99.90
18882;DHT22;9573;50.948;11.600;2022-08-04T01:27:44;19.50;99.90
18882;DHT22;9573;50.948;11.600;2022-08-04T01:30:22;19.40;99.90
18882;DHT22;9573;50.948;11.600;2022-08-04T01:32:52;19.40;99.90
18882;DHT22;9573;50.948;11.600;2022-08-04T01:35:24;19.40;99.90
18882;DHT22;9573;50.948;11.600;2022-08-04T01:37:58;19.30;99.90
18882;DHT22;9573;50.948;11.600;2022-08-04T01:40:28;19.30;99.90
18882;DHT22;9573;50.948;11.600;2022-08-04T01:42:57;19.30;99.90
18882;DHT22;9573;50.948;11.600;2022-08-04T01:45:29;19.30;99.90
18882;DHT22;9573;50.948;11.600;2022-08-04T01:47:56;19.20;99.90
18882;DHT22;9573;50.948;11.600;2022-08-04T01:50:24;19.20;99.90
18882;DHT22;9573;50.948;11.600;2022-08-04T01:52:53;19.20;99.90
18882;DHT22;9573;50.948;11.600;2022-08-04T01:55:21;19.20;99.90
18882;DHT22;9573;50.948;11.600;2022-08-04T01:57:50;19.10;99.90
18882;DHT22;9573;50.948;11.600;2022-08-04T02:00:21;19.10;99.90
18882;DHT22;9573;50.948;11.600;2022-08-04T02:02:54;19.10;99.90
18882;DHT22;9573;50.948;11.600;2022-08-04T02:05:24;19.10;99.90
18882;DHT22;9573;50.948;11.600;2022-08-04T02:08:05;19.00;99.90
18882;DHT22;9573;50.948;11.600;2022-08-04T02:10:51;19.00;99.90
18882;DHT22;9573;50.948;11.600;2022-08-04T02:13:25;19.00;99.90
18882;DHT22;9573;50.948;11.600;2022-08-04T02:16:01;18.90;99.90
18882;DHT22;9573;50.948;11.600;2022-08-04T02:18:36;18.90;99.90
18882;DHT22;9573;50.948;11.600;2022-08-04T02:21:09;18.90;99.90
18882;DHT22;9573;50.948;11.600;2022-08-04T02:23:39;18.80;99.90
18882;DHT22;9573;50.948;11.600;2022-08-04T02:26:12;18.90;99.90
18882;DHT22;9573;50.948;11.600;2022-08-04T02:28:46;18.80;99.90
18882;DHT22;9573;50.948;11.600;2022-08-04T02:31:26;18.80;99.90
18882;DHT22;9573;50.948;11.600;2022-08-04T02:34:06;18.70;99.90
18882;DHT22;9573;50.948;11.600;2022-08-04T02:36:35;18.70;99.90
18882;DHT22;9573;50.948;11.600;2022-08-04T02:39:04;18.70;99.90
18882;DHT22;9573;50.948;11.600;2022-08-04T02:41:33;18.70;99.90
18882;DHT22;9573;50.948;11.600;2022-08-04T02:44:03;18.70;99.90
18882;DHT22;9573;50.948;11.600;2022-08-04T02:46:33;18.60;99.90
18882;DHT22;9573;50.948;11.600;2022-08-04T02:49:03;18.60;99.90
18882;DHT22;9573;50.948;11.600;2022-08-04T02:51:34;18.60;99.90
18882;DHT22;9573;50.948;11.600;2022-08-04T02:54:04;18.50;99.90
18882;DHT22;9573;50.948;11.600;2022-08-04T02:56:33;18.50;99.90
18882;DHT22;9573;50.948;11.600;2022-08-04T02:59:03;18.50;99.90
18882;DHT22;9573;50.948;11.600;2022-08-04T03:01:31;18.50;99.90
18882;DHT22;9573;50.948;11.600;2022-08-04T03:04:20;18.40;99.90
18882;DHT22;9573;50.948;11.600;2022-08-04T03:10:52;18.40;99.90
18882;DHT22;9573;50.948;11.600;2022-08-04T03:13:41;18.40;99.90
18882;DHT22;9573;50.948;11.600;2022-08-04T03:24:04;18.30;99.90
18882;DHT22;9573;50.948;11.600;2022-08-04T03:27:17;18.20;99.90
18882;DHT22;9573;50.948;11.600;2022-08-04T03:30:07;18.20;99.90
18882;DHT22;9573;50.948;11.600;2022-08-04T03:39:21;18.20;99.90
18882;DHT22;9573;50.948;11.600;2022-08-04T03:45:56;18.10;99.90
18882;DHT22;9573;50.948;11.600;2022-08-04T03:48:59;18.10;99.90
18882;DHT22;9573;50.948;11.600;2022-08-04T03:52:05;18.10;99.90
18882;DHT22;9573;50.948;11.600;2022-08-04T03:55:21;18.20;99.90
18882;DHT22;9573;50.948;11.600;2022-08-04T03:58:41;18.10;99.90
18882;DHT22;9573;50.948;11.600;2022-08-04T04:01:28;18.10;99.90
18882;DHT22;9573;50.948;11.600;2022-08-04T04:04:41;18.20;99.90
18882;DHT22;9573;50.948;11.600;2022-08-04T04:10:51;18.30;99.90
18882;DHT22;9573;50.948;11.600;2022-08-04T04:13:49;18.30;99.90
18882;DHT22;9573;50.948;11.600;2022-08-04T04:16:37;18.30;99.90
18882;DHT22;9573;50.948;11.600;2022-08-04T04:19:42;18.40;99.90
18882;DHT22;9573;50.948;11.600;2022-08-04T04:22:28;18.40;99.90
18882;DHT22;9573;50.948;11.600;2022-08-04T04:25:16;18.50;99.90
18882;DHT22;9573;50.948;11.600;2022-08-04T04:28:05;18.60;99.90
18882;DHT22;9573;50.948;11.600;2022-08-04T04:30:52;18.70;99.90
18882;DHT22;9573;50.948;11.600;2022-08-04T04:33:38;18.70;99.90
18882;DHT22;9573;50.948;11.600;2022-08-04T04:36:15;18.80;99.90
18882;DHT22;9573;50.948;11.600;2022-08-04T04:39:09;18.90;99.90
18882;DHT22;9573;50.948;11.600;2022-08-04T04:42:04;19.00;99.90
18882;DHT22;9573;50.948;11.600;2022-08-04T04:47:48;19.30;99.90
18882;DHT22;9573;50.948;11.600;2022-08-04T04:50:31;19.50;99.90
18882;DHT22;9573;50.948;11.600;2022-08-04T04:53:11;19.70;99.90
18882;DHT22;9573;50.948;11.600;2022-08-04T04:55:50;19.90;99.90
18882;DHT22;9573;50.948;11.600;2022-08-04T04:58:24;20.10;99.90
18882;DHT22;9573;50.948;11.600;2022-08-04T05:04:42;21.00;99.90
18882;DHT22;9573;50.948;11.600;2022-08-04T05:07:40;22.30;99.90
18882;DHT22;9573;50.948;11.600;2022-08-04T05:10:32;23.30;99.90
18882;DHT22;9573;50.948;11.600;2022-08-04T05:13:17;24.60;99.90
18882;DHT22;9573;50.948;11.600;2022-08-04T05:16:06;25.90;99.90
18882;DHT22;9573;50.948;11.600;2022-08-04T05:18:39;27.00;99.90
18882;DHT22;9573;50.948;11.600;2022-08-04T05:21:18;27.80;97.70
18882;DHT22;9573;50.948;11.600;2022-08-04T05:23:57;28.70;93.80
18882;DHT22;9573;50.948;11.600;2022-08-04T05:26:34;29.10;91.20
18882;DHT22;9573;50.948;11.600;2022-08-04T05:29:10;29.70;87.90
18882;DHT22;9573;50.948;11.600;2022-08-04T05:31:41;30.50;83.10
18882;DHT22;9573;50.948;11.600;2022-08-04T05:34:17;30.80;79.90
18882;DHT22;9573;50.948;11.600;2022-08-04T05:36:48;31.30;77.20
18882;DHT22;9573;50.948;11.600;2022-08-04T05:39:20;31.70;73.70
18882;DHT22;9573;50.948;11.600;2022-08-04T05:41:48;32.10;71.40
18882;DHT22;9573;50.948;11.600;2022-08-04T05:44:19;32.70;69.10
18882;DHT22;9573;50.948;11.600;2022-08-04T05:46:51;33.20;65.00
18882;DHT22;9573;50.948;11.600;2022-08-04T05:49:22;33.40;61.50
18882;DHT22;9573;50.948;11.600;2022-08-04T05:51:51;33.50;59.60
18882;DHT22;9573;50.948;11.600;2022-08-04T05:54:20;33.60;59.10
18882;DHT22;9573;50.948;11.600;2022-08-04T05:56:48;33.30;59.10
18882;DHT22;9573;50.948;11.600;2022-08-04T05:59:18;33.40;58.60
18882;DHT22;9573;50.948;11.600;2022-08-04T06:01:48;33.70;57.50
18882;DHT22;9573;50.948;11.600;2022-08-04T06:04:17;34.10;56.40
18882;DHT22;9573;50.948;11.600;2022-08-04T06:06:47;34.50;55.90
18882;DHT22;9573;50.948;11.600;2022-08-04T06:09:17;35.10;54.80
18882;DHT22;9573;50.948;11.600;2022-08-04T06:11:45;35.40;54.00
18882;DHT22;9573;50.948;11.600;2022-08-04T06:14:15;36.20;53.40
18882;DHT22;9573;50.948;11.600;2022-08-04T06:16:44;36.70;51.40
18882;DHT22;9573;50.948;11.600;2022-08-04T06:19:13;36.90;50.60
18882;DHT22;9573;50.948;11.600;2022-08-04T06:21:45;37.80;49.70
18882;DHT22;9573;50.948;11.600;2022-08-04T06:24:17;38.10;49.20
18882;DHT22;9573;50.948;11.600;2022-08-04T06:26:48;38.70;48.40
18882;DHT22;9573;50.948;11.600;2022-08-04T06:29:18;39.10;47.70
18882;DHT22;9573;50.948;11.600;2022-08-04T06:31:52;39.60;46.90
18882;DHT22;9573;50.948;11.600;2022-08-04T06:34:28;39.60;45.80
18882;DHT22;9573;50.948;11.600;2022-08-04T06:36:57;39.30;45.50
18882;DHT22;9573;50.948;11.600;2022-08-04T06:39:25;39.50;44.90
18882;DHT22;9573;50.948;11.600;2022-08-04T06:41:53;39.70;44.90
18882;DHT22;9573;50.948;11.600;2022-08-04T06:44:23;39.50;44.60
18882;DHT22;9573;50.948;11.600;2022-08-04T06:46:52;39.70;44.80
18882;DHT22;9573;50.948;11.600;2022-08-04T06:49:20;40.30;44.20
18882;DHT22;9573;50.948;11.600;2022-08-04T06:51:56;40.40;43.80
18882;DHT22;9573;50.948;11.600;2022-08-04T06:54:26;40.20;43.40
18882;DHT22;9573;50.948;11.600;2022-08-04T06:56:54;40.50;43.30
18882;DHT22;9573;50.948;11.600;2022-08-04T06:59:25;41.20;42.40
18882;DHT22;9573;50.948;11.600;2022-08-04T07:01:53;42.00;41.60
18882;DHT22;9573;50.948;11.600;2022-08-04T07:04:22;43.00;40.80
18882;DHT22;9573;50.948;11.600;2022-08-04T07:06:49;43.60;39.80
18882;DHT22;9573;50.948;11.600;2022-08-04T07:09:16;44.20;39.10
18882;DHT22;9573;50.948;11.600;2022-08-04T07:11:44;44.60;38.40
18882;DHT22;9573;50.948;11.600;2022-08-04T07:14:14;44.70;38.00
18882;DHT22;9573;50.948;11.600;2022-08-04T07:16:45;44.80;37.50
18882;DHT22;9573;50.948;11.600;2022-08-04T07:19:12;45.20;36.70
18882;DHT22;9573;50.948;11.600;2022-08-04T07:21:39;45.40;36.90
18882;DHT22;9573;50.948;11.600;2022-08-04T07:24:07;45.00;36.70
18882;DHT22;9573;50.948;11.600;2022-08-04T07:26:34;44.60;37.20
18882;DHT22;9573;50.948;11.600;2022-08-04T07:29:02;44.40;37.50
18882;DHT22;9573;50.948;11.600;2022-08-04T07:31:30;45.00;36.70
18882;DHT22;9573;50.948;11.600;2022-08-04T07:34:00;45.40;36.20
18882;DHT22;9573;50.948;11.600;2022-08-04T07:36:28;46.00;36.10
18882;DHT22;9573;50.948;11.600;2022-08-04T07:38:55;46.80;35.20
18882;DHT22;9573;50.948;11.600;2022-08-04T07:41:23;47.30;34.90
18882;DHT22;9573;50.948;11.600;2022-08-04T07:43:51;47.50;34.10
18882;DHT22;9573;50.948;11.600;2022-08-04T07:46:19;47.20;34.80
18882;DHT22;9573;50.948;11.600;2022-08-04T07:48:47;46.50;34.40
18882;DHT22;9573;50.948;11.600;2022-08-04T07:51:16;45.90;35.20
18882;DHT22;9573;50.948;11.600;2022-08-04T07:53:43;46.00;35.50
18882;DHT22;9573;50.948;11.600;2022-08-04T07:56:12;46.20;35.10
18882;DHT22;9573;50.948;11.600;2022-08-04T07:58:41;46.40;35.00
18882;DHT22;9573;50.948;11.600;2022-08-04T08:01:08;46.90;34.80
18882;DHT22;9573;50.948;11.600;2022-08-04T08:03:37;48.10;33.80
18882;DHT22;9573;50.948;11.600;2022-08-04T08:06:05;48.90;33.00
18882;DHT22;9573;50.948;11.600;2022-08-04T08:08:36;49.00;32.70
18882;DHT22;9573;50.948;11.600;2022-08-04T08:11:04;49.00;32.20
18882;DHT22;9573;50.948;11.600;2022-08-04T08:13:31;48.90;32.30
18882;DHT22;9573;50.948;11.600;2022-08-04T08:15:59;48.80;32.40
18882;DHT22;9573;50.948;11.600;2022-08-04T08:18:27;49.00;32.20
18882;DHT22;9573;50.948;11.600;2022-08-04T08:20:55;49.40;32.00
18882;DHT22;9573;50.948;11.600;2022-08-04T08:23:22;49.50;32.00
18882;DHT22;9573;50.948;11.600;2022-08-04T08:25:51;49.80;31.50
18882;DHT22;9573;50.948;11.600;2022-08-04T08:28:19;50.10;31.20
18882;DHT22;9573;50.948;11.600;2022-08-04T08:30:46;50.70;31.10
18882;DHT22;9573;50.948;11.600;2022-08-04T08:33:14;51.10;31.20
18882;DHT22;9573;50.948;11.600;2022-08-04T08:35:49;51.50;30.00
18882;DHT22;9573;50.948;11.600;2022-08-04T08:38:24;51.20;30.00
18882;DHT22;9573;50.948;11.600;2022-08-04T08:41:12;51.20;30.00
18882;DHT22;9573;50.948;11.600;2022-08-04T08:44:02;51.30;29.70
18882;DHT22;9573;50.948;11.600;2022-08-04T08:46:57;51.10;29.90
18882;DHT22;9573;50.948;11.600;2022-08-04T08:49:54;50.50;29.80
18882;DHT22;9573;50.948;11.600;2022-08-04T08:55:51;50.40;29.80
18882;DHT22;9573;50.948;11.600;2022-08-04T08:58:55;50.50;29.90
18882;DHT22;9573;50.948;11.600;2022-08-04T09:01:39;50.50;29.20
18882;DHT22;9573;50.948;11.600;2022-08-04T09:04:35;49.90;30.00
18882;DHT22;9573;50.948;11.600;2022-08-04T09:07:32;49.40;30.00
18882;DHT22;9573;50.948;11.600;2022-08-04T09:10:16;49.70;30.30
18882;DHT22;9573;50.948;11.600;2022-08-04T09:12:53;50.20;29.90
18882;DHT22;9573;50.948;11.600;2022-08-04T09:15:29;50.50;29.50
18882;DHT22;9573;50.948;11.600;2022-08-04T09:18:06;50.50;29.50
18882;DHT22;9573;50.948;11.600;2022-08-04T09:20:39;50.80;28.80
18882;DHT22;9573;50.948;11.600;2022-08-04T09:23:16;49.70;29.10
18882;DHT22;9573;50.948;11.600;2022-08-04T09:25:50;49.20;29.30
18882;DHT22;9573;50.948;11.600;2022-08-04T09:28:26;49.80;29.80
18882;DHT22;9573;50.948;11.600;2022-08-04T09:31:00;50.10;28.80
18882;DHT22;9573;50.948;11.600;2022-08-04T09:33:43;50.40;28.80
18882;DHT22;9573;50.948;11.600;2022-08-04T09:36:23;51.00;28.10
18882;DHT22;9573;50.948;11.600;2022-08-04T09:39:05;50.80;28.30
18882;DHT22;9573;50.948;11.600;2022-08-04T09:41:42;50.70;28.30
18882;DHT22;9573;50.948;11.600;2022-08-04T09:44:24;50.70;28.50
18882;DHT22;9573;50.948;11.600;2022-08-04T09:47:02;50.50;28.50
18882;DHT22;9573;50.948;11.600;2022-08-04T09:49:37;50.10;28.70
18882;DHT22;9573;50.948;11.600;2022-08-04T09:52:21;50.00;28.40
18882;DHT22;9573;50.948;11.600;2022-08-04T09:55:01;50.80;28.20
18882;DHT22;9573;50.948;11.600;2022-08-04T09:57:56;51.20;28.00
18882;DHT22;9573;50.948;11.600;2022-08-04T10:00:35;49.20;28.10
18882;DHT22;9573;50.948;11.600;2022-08-04T10:03:09;48.40;29.40
18882;DHT22;9573;50.948;11.600;2022-08-04T10:05:48;48.00;29.20
18882;DHT22;9573;50.948;11.600;2022-08-04T10:08:37;48.60;29.00
18882;DHT22;9573;50.948;11.600;2022-08-04T10:11:19;49.40;28.40
18882;DHT22;9573;50.948;11.600;2022-08-04T10:13:55;50.00;28.50
18882;DHT22;9573;50.948;11.600;2022-08-04T10:16:39;50.40;28.10
18882;DHT22;9573;50.948;11.600;2022-08-04T10:19:23;48.30;28.60
18882;DHT22;9573;50.948;11.600;2022-08-04T10:22:02;47.80;29.60
18882;DHT22;9573;50.948;11.600;2022-08-04T10:24:41;47.80;29.20
18882;DHT22;9573;50.948;11.600;2022-08-04T10:27:23;47.70;29.40
18882;DHT22;9573;50.948;11.600;2022-08-04T10:29:57;47.50;29.50
18882;DHT22;9573;50.948;11.600;2022-08-04T10:32:36;47.90;29.50
18882;DHT22;9573;50.948;11.600;2022-08-04T10:35:10;47.90;29.70
18882;DHT22;9573;50.948;11.600;2022-08-04T10:37:47;48.00;29.60
18882;DHT22;9573;50.948;11.600;2022-08-04T10:40:30;49.10;29.40
18882;DHT22;9573;50.948;11.600;2022-08-04T10:43:19;49.80;28.70
18882;DHT22;9573;50.948;11.600;2022-08-04T10:45:55;50.40;28.40
18882;DHT22;9573;50.948;11.600;2022-08-04T10:48:35;50.30;28.00
18882;DHT22;9573;50.948;11.600;2022-08-04T10:51:14;50.40;27.90
18882;DHT22;9573;50.948;11.600;2022-08-04T10:53:51;49.60;28.40
18882;DHT22;9573;50.948;11.600;2022-08-04T10:56:28;49.70;28.30
18882;DHT22;9573;50.948;11.600;2022-08-04T10:59:03;48.90;28.10
18882;DHT22;9573;50.948;11.600;2022-08-04T11:01:37;48.30;28.90
18882;DHT22;9573;50.948;11.600;2022-08-04T11:04:14;47.50;29.40
18882;DHT22;9573;50.948;11.600;2022-08-04T11:06:48;47.10;29.70
18882;DHT22;9573;50.948;11.600;2022-08-04T11:09:17;46.70;30.00
18882;DHT22;9573;50.948;11.600;2022-08-04T11:11:51;47.70;29.50
18882;DHT22;9573;50.948;11.600;2022-08-04T11:14:26;48.60;29.00
18882;DHT22;9573;50.948;11.600;2022-08-04T11:17:00;49.40;28.40
18882;DHT22;9573;50.948;11.600;2022-08-04T11:19:35;50.40;27.70
18882;DHT22;9573;50.948;11.600;2022-08-04T11:22:10;51.10;27.80
18882;DHT22;9573;50.948;11.600;2022-08-04T11:24:48;51.00;27.50
18882;DHT22;9573;50.948;11.600;2022-08-04T11:27:22;49.50;28.20
18882;DHT22;9573;50.948;11.600;2022-08-04T11:29:59;48.60;28.80
18882;DHT22;9573;50.948;11.600;2022-08-04T11:32:34;48.60;28.70
18882;DHT22;9573;50.948;11.600;2022-08-04T11:35:08;47.60;28.90
18882;DHT22;9573;50.948;11.600;2022-08-04T11:37:44;46.90;29.40
18882;DHT22;9573;50.948;11.600;2022-08-04T11:40:18;46.70;29.60
18882;DHT22;9573;50.948;11.600;2022-08-04T11:42:52;46.80;29.40
18882;DHT22;9573;50.948;11.600;2022-08-04T11:45:30;46.10;29.80
18882;DHT22;9573;50.948;11.600;2022-08-04T11:48:04;44.90;30.50
18882;DHT22;9573;50.948;11.600;2022-08-04T11:50:42;45.50;30.40
18882;DHT22;9573;50.948;11.600;2022-08-04T11:53:19;45.60;30.60
18882;DHT22;9573;50.948;11.600;2022-08-04T11:55:51;46.20;30.00
18882;DHT22;9573;50.948;11.600;2022-08-04T11:58:20;45.40;30.30
18882;DHT22;9573;50.948;11.600;2022-08-04T12:00:55;44.40;31.30
18882;DHT22;9573;50.948;11.600;2022-08-04T12:03:37;43.40;31.80
18882;DHT22;9573;50.948;11.600;2022-08-04T12:06:17;42.50;32.50
18882;DHT22;9573;50.948;11.600;2022-08-04T12:08:57;42.00;33.40
18882;DHT22;9573;50.948;11.600;2022-08-04T12:11:40;41.90;33.90
18882;DHT22;9573;50.948;11.600;2022-08-04T12:17:08;43.20;32.90
18882;DHT22;9573;50.948;11.600;2022-08-04T12:19:40;44.50;31.40
18882;DHT22;9573;50.948;11.600;2022-08-04T12:22:17;45.10;31.30
18882;DHT22;9573;50.948;11.600;2022-08-04T12:24:56;45.30;30.70
18882;DHT22;9573;50.948;11.600;2022-08-04T12:27:30;45.10;30.30
18882;DHT22;9573;50.948;11.600;2022-08-04T12:30:01;44.90;30.70
18882;DHT22;9573;50.948;11.600;2022-08-04T12:32:34;45.50;30.60
18882;DHT22;9573;50.948;11.600;2022-08-04T12:35:11;45.80;30.30
18882;DHT22;9573;50.948;11.600;2022-08-04T12:37:58;46.60;30.00
18882;DHT22;9573;50.948;11.600;2022-08-04T12:40:37;47.40;29.50
18882;DHT22;9573;50.948;11.600;2022-08-04T12:43:10;47.40;29.40
18882;DHT22;9573;50.948;11.600;2022-08-04T12:45:48;46.70;29.30
18882;DHT22;9573;50.948;11.600;2022-08-04T12:48:17;46.00;30.00
18882;DHT22;9573;50.948;11.600;2022-08-04T12:50:47;45.60;30.30
18882;DHT22;9573;50.948;11.600;2022-08-04T12:53:19;44.70;31.30
18882;DHT22;9573;50.948;11.600;2022-08-04T12:55:48;43.70;31.50
18882;DHT22;9573;50.948;11.600;2022-08-04T12:58:17;43.50;31.80
18882;DHT22;9573;50.948;11.600;2022-08-04T13:00:52;43.90;31.60
18882;DHT22;9573;50.948;11.600;2022-08-04T13:03:27;43.70;32.20
18882;DHT22;9573;50.948;11.600;2022-08-04T13:05:55;43.40;32.40
18882;DHT22;9573;50.948;11.600;2022-08-04T13:08:24;42.70;32.70
18882;DHT22;9573;50.948;11.600;2022-08-04T13:10:52;42.00;33.40
18882;DHT22;9573;50.948;11.600;2022-08-04T13:13:25;41.30;34.10
18882;DHT22;9573;50.948;11.600;2022-08-04T13:15:54;40.90;34.80
18882;DHT22;9573;50.948;11.600;2022-08-04T13:18:23;40.30;35.50
18882;DHT22;9573;50.948;11.600;2022-08-04T13:20:52;39.90;35.90
18882;DHT22;9573;50.948;11.600;2022-08-04T13:23:19;39.50;35.80
18882;DHT22;9573;50.948;11.600;2022-08-04T13:25:51;39.40;36.10
18882;DHT22;9573;50.948;11.600;2022-08-04T13:28:22;39.20;36.20
18882;DHT22;9573;50.948;11.600;2022-08-04T13:30:54;39.00;36.10
18882;DHT22;9573;50.948;11.600;2022-08-04T13:33:26;38.80;36.30
18882;DHT22;9573;50.948;11.600;2022-08-04T13:35:56;38.70;36.70
18882;DHT22;9573;50.948;11.600;2022-08-04T13:38:26;38.60;36.50
18882;DHT22;9573;50.948;11.600;2022-08-04T13:40:56;38.50;36.70
18882;DHT22;9573;50.948;11.600;2022-08-04T13:43:28;38.50;36.80
18882;DHT22;9573;50.948;11.600;2022-08-04T13:46:01;38.50;36.80
18882;DHT22;9573;50.948;11.600;2022-08-04T13:48:31;38.60;36.70
18882;DHT22;9573;50.948;11.600;2022-08-04T13:51:02;38.60;36.90
18882;DHT22;9573;50.948;11.600;2022-08-04T13:53:31;38.70;36.40
18882;DHT22;9573;50.948;11.600;2022-08-04T13:56:03;38.70;36.30
18882;DHT22;9573;50.948;11.600;2022-08-04T13:58:33;38.70;36.80
18882;DHT22;9573;50.948;11.600;2022-08-04T14:01:06;38.70;37.20
18882;DHT22;9573;50.948;11.600;2022-08-04T14:03:38;38.60;37.70
18882;DHT22;9573;50.948;11.600;2022-08-04T14:06:13;38.60;37.00
18882;DHT22;9573;50.948;11.600;2022-08-04T14:08:48;38.60;36.60
18882;DHT22;9573;50.948;11.600;2022-08-04T14:11:21;38.40;36.70
18882;DHT22;9573;50.948;11.600;2022-08-04T14:13:57;38.50;36.60
18882;DHT22;9573;50.948;11.600;2022-08-04T14:16:24;38.50;37.20
18882;DHT22;9573;50.948;11.600;2022-08-04T14:18:57;38.30;37.40
18882;DHT22;9573;50.948;11.600;2022-08-04T14:21:26;38.20;37.70
18882;DHT22;9573;50.948;11.600;2022-08-04T14:23:55;38.00;39.00
18882;DHT22;9573;50.948;11.600;2022-08-04T14:26:26;37.80;38.70
18882;DHT22;9573;50.948;11.600;2022-08-04T14:29:07;37.80;38.30
18882;DHT22;9573;50.948;11.600;2022-08-04T14:31:36;37.70;38.30
18882;DHT22;9573;50.948;11.600;2022-08-04T14:34:03;37.60;38.10
18882;DHT22;9573;50.948;11.600;2022-08-04T14:36:38;37.60;38.40
18882;DHT22;9573;50.948;11.600;2022-08-04T14:39:07;37.60;38.50
18882;DHT22;9573;50.948;11.600;2022-08-04T14:41:45;37.60;38.90
18882;DHT22;9573;50.948;11.600;2022-08-04T14:44:15;37.50;38.90
18882;DHT22;9573;50.948;11.600;2022-08-04T14:46:53;37.50;39.30
18882;DHT22;9573;50.948;11.600;2022-08-04T14:49:21;37.30;38.80
18882;DHT22;9573;50.948;11.600;2022-08-04T14:51:52;37.40;39.00
18882;DHT22;9573;50.948;11.600;2022-08-04T14:54:28;37.50;38.80
18882;DHT22;9573;50.948;11.600;2022-08-04T14:57:01;37.60;38.70
18882;DHT22;9573;50.948;11.600;2022-08-04T14:59:40;37.80;38.20
18882;DHT22;9573;50.948;11.600;2022-08-04T15:02:08;37.90;38.10
18882;DHT22;9573;50.948;11.600;2022-08-04T15:04:38;37.60;38.20
18882;DHT22;9573;50.948;11.600;2022-08-04T15:07:05;37.60;38.20
18882;DHT22;9573;50.948;11.600;2022-08-04T15:09:34;37.40;38.30
18882;DHT22;9573;50.948;11.600;2022-08-04T15:12:03;37.30;38.50
18882;DHT22;9573;50.948;11.600;2022-08-04T15:14:31;37.30;38.70
18882;DHT22;9573;50.948;11.600;2022-08-04T15:17:00;37.40;38.60
18882;DHT22;9573;50.948;11.600;2022-08-04T15:19:29;37.60;38.70
18882;DHT22;9573;50.948;11.600;2022-08-04T15:21:58;37.60;38.40
18882;DHT22;9573;50.948;11.600;2022-08-04T15:24:25;37.70;38.70
18882;DHT22;9573;50.948;11.600;2022-08-04T15:26:55;37.70;38.60
18882;DHT22;9573;50.948;11.600;2022-08-04T15:29:42;37.80;37.90
18882;DHT22;9573;50.948;11.600;2022-08-04T15:32:12;37.70;38.00
18882;DHT22;9573;50.948;11.600;2022-08-04T15:34:45;37.80;37.80
18882;DHT22;9573;50.948;11.600;2022-08-04T15:37:17;37.60;38.00
18882;DHT22;9573;50.948;11.600;2022-08-04T15:39:54;37.60;38.30
18882;DHT22;9573;50.948;11.600;2022-08-04T15:42:31;37.70;38.40
18882;DHT22;9573;50.948;11.600;2022-08-04T15:45:24;37.70;38.30
18882;DHT22;9573;50.948;11.600;2022-08-04T15:51:10;37.70;38.30
18882;DHT22;9573;50.948;11.600;2022-08-04T15:56:48;37.40;38.40
18882;DHT22;9573;50.948;11.600;2022-08-04T15:59:55;37.40;38.40
18882;DHT22;9573;50.948;11.600;2022-08-04T16:02:49;37.30;38.30
18882;DHT22;9573;50.948;11.600;2022-08-04T16:05:30;37.10;38.60
18882;DHT22;9573;50.948;11.600;2022-08-04T16:08:14;37.00;38.60
18882;DHT22;9573;50.948;11.600;2022-08-04T16:10:47;36.90;38.90
18882;DHT22;9573;50.948;11.600;2022-08-04T16:13:17;36.90;39.30
18882;DHT22;9573;50.948;11.600;2022-08-04T16:15:50;36.80;39.90
18882;DHT22;9573;50.948;11.600;2022-08-04T16:18:35;36.70;39.40
18882;DHT22;9573;50.948;11.600;2022-08-04T16:21:05;36.70;39.50
18882;DHT22;9573;50.948;11.600;2022-08-04T16:23:49;36.60;39.90
18882;DHT22;9573;50.948;11.600;2022-08-04T16:26:52;36.60;40.00
18882;DHT22;9573;50.948;11.600;2022-08-04T16:29:29;36.50;40.30
18882;DHT22;9573;50.948;11.600;2022-08-04T16:32:09;36.40;40.40
18882;DHT22;9573;50.948;11.600;2022-08-04T16:34:41;36.30;40.40
18882;DHT22;9573;50.948;11.600;2022-08-04T16:37:10;36.30;40.60
18882;DHT22;9573;50.948;11.600;2022-08-04T16:39:38;36.20;40.20
18882;DHT22;9573;50.948;11.600;2022-08-04T16:42:29;36.20;40.40
18882;DHT22;9573;50.948;11.600;2022-08-04T16:44:58;36.10;40.40
18882;DHT22;9573;50.948;11.600;2022-08-04T16:48:01;36.10;40.60
18882;DHT22;9573;50.948;11.600;2022-08-04T16:50:47;36.00;41.10
18882;DHT22;9573;50.948;11.600;2022-08-04T16:53:16;35.90;41.00
18882;DHT22;9573;50.948;11.600;2022-08-04T16:55:45;35.80;41.10
18882;DHT22;9573;50.948;11.600;2022-08-04T16:58:15;35.70;41.20
18882;DHT22;9573;50.948;11.600;2022-08-04T17:00:43;35.70;41.40
18882;DHT22;9573;50.948;11.600;2022-08-04T17:03:10;35.60;41.70
18882;DHT22;9573;50.948;11.600;2022-08-04T17:05:39;35.50;41.80
18882;DHT22;9573;50.948;11.600;2022-08-04T17:08:08;35.50;41.80
18882;DHT22;9573;50.948;11.600;2022-08-04T17:10:38;35.40;41.70
18882;DHT22;9573;50.948;11.600;2022-08-04T17:13:24;35.30;41.90
18882;DHT22;9573;50.948;11.600;2022-08-04T17:15:55;35.30;42.20